Accueil
METAR-TAF:

METAR-TAF

Aéroports :

Aéroport civil d'Amman

Amman, Jordanie

latitude: 31-59N, longitude: 035-59E, altitude: 767 m

Observation

Le bulletin a été fait il y a 6 minutes, à 18:00 UTC
Vent 4 kt de nord-ouest
Température 25°C
Humidité 39%
Pression 1014 hPa
Visibilité: 6000 m

METAR: OJAM 191800Z 32004KT 6000 NSC 25/10 Q1014 NOSIG

Heure: 21:06 (18:06 UTC)

Prévision

Le bulletin a été fait il y a 1 heure et 33 minutes, à 16:33 UTC
Prévision valable du 19 à 18 UTC au 20 à 24 UTC
Vent 4 kt de ouest/nord-ouest
Visibilité: 6000 m
Temporairement
du 20 à 02 UTC au 20 à 07 UTC
Visibilité: 4000 m
brume sèche
Evoluant progressivement
du 20 à 08 UTC au 20 à 10 UTC
Vent 14 kt de ouest/nord-ouest
Visibilité: 5000 m
brume sèche

TAF: OJAM 191633Z 1918/2024 29004KT 6000 NSC TEMPO 2002/2007 4000 HZ BECMG 2008/2010 30014KT 5000 HZ NSC

Observations et prévisions météorologiques de plus de 4000 aéroports (messages METAR et TAF).

Les stations disponibles sont représentées par des disques jaunes et rouges sur la carte.

Passer la souris dessus pour voir le nom de la station.

Cliquer dessus pour voir les observations et prévisions météorologiques.

Pour changer de carte: cliquez sur les boutons verts avec une croix noire pour zoomer, sur le bouton vert avec un tiret pour effectuer un zoom arrière, ou sur les flèches vertes pour les cartes adjacentes.


METAR-TAF: